createdAt,value
2022-12-23T00:00:35.291Z,96.30
2022-12-23T00:03:04.515Z,96.40
2022-12-23T00:05:44.044Z,95.90
2022-12-23T00:08:11.282Z,95.70
2022-12-23T00:10:43.184Z,95.70
2022-12-23T00:13:30.560Z,95.60
2022-12-23T00:16:03.027Z,95.40
2022-12-23T00:18:33.170Z,95.20
2022-12-23T00:21:08.591Z,95.20
2022-12-23T00:23:39.207Z,95.60
2022-12-23T00:26:17.874Z,95.50
2022-12-23T00:28:45.307Z,95.60
2022-12-23T00:31:16.946Z,95.60
2022-12-23T00:33:48.415Z,95.60
2022-12-23T00:36:31.947Z,95.70
2022-12-23T00:39:21.133Z,95.50
2022-12-23T00:42:14.758Z,95.60
2022-12-23T00:44:53.977Z,95.30
2022-12-23T00:47:51.511Z,95.10
2022-12-23T00:50:21.466Z,95.10
2022-12-23T00:52:49.405Z,95.20
2022-12-23T00:55:17.145Z,95.50
2022-12-23T00:57:44.361Z,95.30
2022-12-23T01:00:12.378Z,95.00
2022-12-23T01:02:58.515Z,95.00
2022-12-23T01:05:39.374Z,95.10
2022-12-23T01:08:14.224Z,95.10
2022-12-23T01:10:41.840Z,94.80
2022-12-23T01:13:09.582Z,94.50
2022-12-23T01:15:37.049Z,94.50
2022-12-23T01:18:07.788Z,94.50
2022-12-23T01:20:38.984Z,94.60
2022-12-23T01:23:09.635Z,94.80
2022-12-23T01:25:38.652Z,94.60
2022-12-23T01:28:05.744Z,94.30
2022-12-23T01:30:32.760Z,94.00
2022-12-23T01:33:00.390Z,93.80
2022-12-23T01:35:30.041Z,93.90
2022-12-23T01:37:57.653Z,93.80
2022-12-23T01:40:24.960Z,93.60
2022-12-23T01:42:52.541Z,93.80
2022-12-23T01:45:29.201Z,93.70
2022-12-23T01:48:15.102Z,93.70
2022-12-23T01:50:45.581Z,93.90
2022-12-23T01:53:33.384Z,93.90
2022-12-23T01:56:13.505Z,93.90
2022-12-23T01:58:46.515Z,94.00
2022-12-23T02:01:33.447Z,94.00
2022-12-23T02:04:12.036Z,94.10
2022-12-23T02:07:03.037Z,94.00
2022-12-23T02:09:36.979Z,94.20
2022-12-23T02:12:34.226Z,94.30
2022-12-23T02:15:23.128Z,94.30
2022-12-23T02:17:56.496Z,94.40
2022-12-23T02:20:30.189Z,94.50
2022-12-23T02:23:13.165Z,94.60
2022-12-23T02:25:58.809Z,94.80
2022-12-23T02:28:50.301Z,95.00
2022-12-23T02:31:42.549Z,95.30
2022-12-23T02:34:22.614Z,95.20
2022-12-23T02:37:14.494Z,95.30
2022-12-23T02:39:54.624Z,95.40
2022-12-23T02:42:33.680Z,95.30
2022-12-23T02:45:24.685Z,95.10
2022-12-23T02:48:07.996Z,95.10
2022-12-23T02:50:39.436Z,95.10
2022-12-23T02:53:29.839Z,95.00
2022-12-23T02:56:02.445Z,94.80
2022-12-23T02:58:37.642Z,94.70
2022-12-23T03:01:07.540Z,94.40
2022-12-23T03:03:36.933Z,94.50
2022-12-23T03:06:23.159Z,94.30
2022-12-23T03:09:00.746Z,94.40
2022-12-23T03:12:02.008Z,94.60
2022-12-23T03:15:09.307Z,94.60
2022-12-23T03:18:00.865Z,94.60
2022-12-23T03:20:51.370Z,94.40
2022-12-23T03:23:30.969Z,94.40
2022-12-23T03:26:14.772Z,94.40
2022-12-23T03:29:00.643Z,94.50
2022-12-23T03:31:31.210Z,94.70
2022-12-23T03:34:07.023Z,94.40
2022-12-23T03:36:49.254Z,94.30
2022-12-23T03:39:27.360Z,94.50
2022-12-23T03:42:01.221Z,94.30
2022-12-23T03:45:19.186Z,94.20
2022-12-23T03:47:45.464Z,94.10
2022-12-23T03:50:18.946Z,94.20
2022-12-23T03:53:35.766Z,94.30
2022-12-23T03:56:13.466Z,94.30
2022-12-23T03:59:11.540Z,94.50
2022-12-23T04:02:26.809Z,94.60
2022-12-23T04:05:14.346Z,94.60
2022-12-23T04:08:08.264Z,94.70
2022-12-23T04:10:38.773Z,94.60
2022-12-23T04:13:08.897Z,94.70
2022-12-23T04:15:43.723Z,94.90
2022-12-23T04:18:11.790Z,94.80
2022-12-23T04:20:39.256Z,94.70
2022-12-23T04:23:09.779Z,94.70
2022-12-23T04:25:37.574Z,94.80
2022-12-23T04:28:18.571Z,94.90
2022-12-23T04:30:48.779Z,94.90
2022-12-23T04:33:16.256Z,94.70
2022-12-23T04:35:45.903Z,94.70
2022-12-23T04:38:13.525Z,94.90
2022-12-23T04:40:41.002Z,94.90
2022-12-23T04:43:10.746Z,94.80
2022-12-23T04:45:40.936Z,94.80
2022-12-23T04:48:08.099Z,94.90
2022-12-23T04:50:45.607Z,94.90
2022-12-23T04:53:13.505Z,94.90
2022-12-23T04:55:40.881Z,94.70
2022-12-23T04:58:14.445Z,94.70
2022-12-23T05:00:41.966Z,94.90
2022-12-23T05:03:14.609Z,94.80
2022-12-23T05:05:45.091Z,94.60
2022-12-23T05:08:12.522Z,94.50
2022-12-23T05:10:40.038Z,94.40
2022-12-23T05:13:10.361Z,94.30
2022-12-23T05:15:40.233Z,94.40
2022-12-23T05:18:07.384Z,94.40
2022-12-23T05:20:35.499Z,94.30
2022-12-23T05:23:06.266Z,94.20
2022-12-23T05:25:38.022Z,94.20
2022-12-23T05:28:08.607Z,94.20
2022-12-23T05:30:36.582Z,94.10
2022-12-23T05:33:06.078Z,93.90
2022-12-23T05:35:36.777Z,94.10
2022-12-23T05:38:04.805Z,94.00
2022-12-23T05:40:34.080Z,94.10
2022-12-23T05:43:01.956Z,94.40
2022-12-23T05:45:35.467Z,94.30
2022-12-23T05:48:02.613Z,94.40
2022-12-23T05:50:29.859Z,94.20
2022-12-23T05:52:57.926Z,94.10
2022-12-23T05:55:26.721Z,94.10
2022-12-23T05:57:55.501Z,94.20
2022-12-23T06:00:23.062Z,94.10
2022-12-23T06:02:54.630Z,93.90
2022-12-23T06:05:22.899Z,93.80
2022-12-23T06:07:54.756Z,93.90
2022-12-23T06:10:27.236Z,93.90
2022-12-23T06:12:57.094Z,93.80
2022-12-23T06:15:24.467Z,93.80
2022-12-23T06:18:02.274Z,93.80
2022-12-23T06:20:41.566Z,93.80
2022-12-23T06:23:09.468Z,93.70
2022-12-23T06:25:38.950Z,93.60
2022-12-23T06:28:10.107Z,93.40
2022-12-23T06:30:38.179Z,93.50
2022-12-23T06:33:06.289Z,93.50
2022-12-23T06:35:34.354Z,93.40
2022-12-23T06:41:53.480Z,93.40
2022-12-23T06:44:24.258Z,93.40
2022-12-23T06:46:51.506Z,93.50
2022-12-23T06:49:24.371Z,93.30
2022-12-23T06:51:51.704Z,93.20
2022-12-23T06:54:22.849Z,93.10
2022-12-23T06:57:01.347Z,93.40
2022-12-23T06:59:33.852Z,93.50
2022-12-23T07:02:14.505Z,93.50
2022-12-23T07:04:44.901Z,93.40
2022-12-23T07:07:15.171Z,93.40
2022-12-23T07:09:42.580Z,93.50
2022-12-23T07:12:10.302Z,93.70
2022-12-23T07:15:07.347Z,93.60
2022-12-23T07:17:47.399Z,93.40
2022-12-23T07:20:19.525Z,93.40
2022-12-23T07:22:57.162Z,93.60
2022-12-23T07:25:30.915Z,93.60
2022-12-23T07:27:58.193Z,93.50
2022-12-23T07:30:26.243Z,93.60
2022-12-23T07:32:54.442Z,93.70
2022-12-23T07:35:30.584Z,93.60
2022-12-23T07:38:03.941Z,93.50
2022-12-23T07:40:31.108Z,93.50
2022-12-23T07:43:00.202Z,93.40
2022-12-23T07:45:30.207Z,93.60
2022-12-23T07:48:02.488Z,93.80
2022-12-23T07:50:33.402Z,93.60
2022-12-23T07:53:03.238Z,93.60
2022-12-23T07:55:31.494Z,93.60
2022-12-23T07:58:05.385Z,93.60
2022-12-23T08:00:35.695Z,93.50
2022-12-23T08:03:12.329Z,93.50
2022-12-23T08:05:45.219Z,93.70
2022-12-23T08:08:14.575Z,93.50
2022-12-23T08:10:48.317Z,93.20
2022-12-23T08:13:18.627Z,93.30
2022-12-23T08:15:51.684Z,93.20
2022-12-23T08:18:19.100Z,93.10
2022-12-23T08:21:01.935Z,93.30
2022-12-23T08:23:38.334Z,93.40
2022-12-23T08:26:14.313Z,93.40
2022-12-23T08:28:44.027Z,93.50
2022-12-23T08:31:26.005Z,93.50
2022-12-23T08:33:58.018Z,93.60
2022-12-23T08:36:29.796Z,93.60
2022-12-23T08:39:04.417Z,93.50
2022-12-23T08:41:35.729Z,93.40
2022-12-23T08:44:09.024Z,93.60
2022-12-23T08:46:37.432Z,93.60
2022-12-23T08:49:10.899Z,93.40
2022-12-23T08:51:42.043Z,93.20
2022-12-23T08:54:15.838Z,93.00
2022-12-23T08:56:43.147Z,93.10
2022-12-23T08:59:25.132Z,93.10
2022-12-23T09:02:02.974Z,93.10
2022-12-23T09:04:31.809Z,93.00
2022-12-23T09:07:04.742Z,92.70
2022-12-23T09:10:00.170Z,92.90
2022-12-23T09:12:32.177Z,92.70
2022-12-23T09:14:59.847Z,92.70
2022-12-23T09:17:27.675Z,92.60
2022-12-23T09:19:57.905Z,92.60
2022-12-23T09:22:35.199Z,92.60
2022-12-23T09:25:06.715Z,92.50
2022-12-23T09:27:36.046Z,92.40
2022-12-23T09:30:12.651Z,92.20
2022-12-23T09:32:44.093Z,92.20
2022-12-23T09:35:16.558Z,92.00
2022-12-23T09:38:04.443Z,91.90
2022-12-23T09:40:37.289Z,91.70
2022-12-23T09:43:37.497Z,91.60
2022-12-23T09:46:26.705Z,91.50
2022-12-23T09:49:24.823Z,91.40
2022-12-23T09:52:23.067Z,91.40
2022-12-23T09:55:18.618Z,91.80
2022-12-23T09:58:01.425Z,91.80
2022-12-23T10:00:43.640Z,91.80
2022-12-23T10:03:28.951Z,92.00
2022-12-23T10:06:20.468Z,91.70
2022-12-23T10:08:54.775Z,91.60
2022-12-23T10:11:57.462Z,91.70
2022-12-23T10:14:31.730Z,91.50
2022-12-23T10:17:05.993Z,91.40
2022-12-23T10:19:44.262Z,91.20
2022-12-23T10:22:17.873Z,90.90
2022-12-23T10:24:48.662Z,90.90
2022-12-23T10:27:26.769Z,90.90
2022-12-23T10:29:56.980Z,90.90
2022-12-23T10:32:47.001Z,90.90
2022-12-23T10:35:58.177Z,91.20
2022-12-23T10:38:52.755Z,91.10
2022-12-23T10:41:23.061Z,91.30
2022-12-23T10:45:00.207Z,91.30
2022-12-23T10:48:11.939Z,91.50
2022-12-23T10:50:52.443Z,91.30
2022-12-23T10:53:59.127Z,91.20
2022-12-23T10:56:31.451Z,91.40
2022-12-23T10:59:04.656Z,91.50
2022-12-23T11:01:41.465Z,91.40
2022-12-23T11:04:31.693Z,91.40
2022-12-23T11:07:42.691Z,91.20
2022-12-23T11:10:20.805Z,90.90
2022-12-23T11:12:56.709Z,90.90
2022-12-23T11:18:43.839Z,91.00
2022-12-23T11:21:15.373Z,90.80
2022-12-23T11:24:02.735Z,90.70
2022-12-23T11:27:01.917Z,90.80
2022-12-23T11:29:50.903Z,90.90
2022-12-23T11:32:26.724Z,90.90
2022-12-23T11:35:03.279Z,91.10
2022-12-23T11:37:42.030Z,91.00
2022-12-23T11:40:40.565Z,91.20
2022-12-23T11:43:19.021Z,91.40
2022-12-23T11:46:27.743Z,91.40
2022-12-23T11:49:25.711Z,91.40
2022-12-23T11:52:12.556Z,91.50
2022-12-23T11:54:57.252Z,91.60
2022-12-23T11:57:38.586Z,91.60
2022-12-23T12:00:14.150Z,91.50
2022-12-23T12:03:11.713Z,91.50
2022-12-23T12:05:46.880Z,91.80
2022-12-23T12:08:36.602Z,91.80
2022-12-23T12:11:17.403Z,92.00
2022-12-23T12:16:55.997Z,92.40
2022-12-23T12:19:45.629Z,92.20
2022-12-23T12:22:38.859Z,92.40
2022-12-23T12:25:39.966Z,92.50
2022-12-23T12:28:28.952Z,92.80
2022-12-23T12:31:14.208Z,92.90
2022-12-23T12:33:59.438Z,93.20
2022-12-23T12:37:08.956Z,93.40
2022-12-23T12:40:06.576Z,93.50
2022-12-23T12:43:04.331Z,93.30
2022-12-23T12:46:04.636Z,93.50
2022-12-23T12:48:47.208Z,93.40
2022-12-23T12:51:49.453Z,93.40
2022-12-23T12:54:44.817Z,93.20
2022-12-23T12:57:27.576Z,93.50
2022-12-23T13:00:06.409Z,93.70
2022-12-23T13:03:00.799Z,93.60
2022-12-23T13:06:11.170Z,93.40
2022-12-23T13:09:18.288Z,93.30
2022-12-23T13:12:25.197Z,93.40
2022-12-23T13:15:32.550Z,93.50
2022-12-23T13:18:23.719Z,93.40
2022-12-23T13:21:17.013Z,93.40
2022-12-23T13:24:10.654Z,93.40
2022-12-23T13:26:46.053Z,93.20
2022-12-23T13:29:56.138Z,93.30
2022-12-23T13:33:08.130Z,93.40
2022-12-23T13:35:35.576Z,93.20
2022-12-23T13:38:20.340Z,93.40
2022-12-23T13:41:13.124Z,93.40
2022-12-23T13:43:49.705Z,93.20
2022-12-23T13:46:23.787Z,93.00
2022-12-23T13:48:53.807Z,92.80
2022-12-23T13:51:41.666Z,92.90
2022-12-23T13:54:15.077Z,92.90
2022-12-23T13:57:11.150Z,93.00
2022-12-23T13:59:44.775Z,93.00
2022-12-23T14:02:36.888Z,93.10
2022-12-23T14:05:37.979Z,93.00
2022-12-23T14:08:07.321Z,93.10
2022-12-23T14:10:41.286Z,93.00
2022-12-23T14:13:09.452Z,93.10
2022-12-23T14:16:05.997Z,93.40
2022-12-23T14:19:09.570Z,93.60
2022-12-23T14:22:17.318Z,93.70
2022-12-23T14:25:06.498Z,93.90
2022-12-23T14:28:13.786Z,93.80
2022-12-23T14:30:48.922Z,93.80
2022-12-23T14:33:19.118Z,93.80
2022-12-23T14:36:26.866Z,93.80
2022-12-23T14:39:12.668Z,94.00
2022-12-23T14:41:58.714Z,93.90
2022-12-23T14:44:38.526Z,93.80
2022-12-23T14:47:33.577Z,94.10
2022-12-23T14:50:34.901Z,93.90
2022-12-23T14:53:31.803Z,94.10
2022-12-23T14:56:32.267Z,94.00
2022-12-23T14:59:28.114Z,94.20
2022-12-23T15:02:25.988Z,94.00
2022-12-23T15:05:00.064Z,94.10
2022-12-23T15:07:43.096Z,94.30
2022-12-23T15:10:39.483Z,94.10
2022-12-23T15:13:20.249Z,94.20
2022-12-23T15:16:01.246Z,94.20
2022-12-23T15:18:37.086Z,94.10
2022-12-23T15:21:11.377Z,94.10
2022-12-23T15:23:50.906Z,94.20
2022-12-23T15:26:21.049Z,94.30
2022-12-23T15:28:48.506Z,94.20
2022-12-23T15:31:36.802Z,94.10
2022-12-23T15:34:16.647Z,94.20
2022-12-23T15:36:48.721Z,94.20
2022-12-23T15:39:22.495Z,93.90
2022-12-23T15:41:50.261Z,94.10
2022-12-23T15:44:45.231Z,93.90
2022-12-23T15:47:29.714Z,93.80
2022-12-23T15:50:00.171Z,93.80
2022-12-23T15:52:32.804Z,93.90
2022-12-23T15:55:29.703Z,93.90
2022-12-23T15:58:01.565Z,93.90
2022-12-23T16:00:38.908Z,93.70
2022-12-23T16:03:22.158Z,93.60
2022-12-23T16:05:50.718Z,93.60
2022-12-23T16:08:29.014Z,93.70
2022-12-23T16:11:06.500Z,93.70
2022-12-23T16:13:35.384Z,93.50
2022-12-23T16:16:42.607Z,93.60
2022-12-23T16:19:38.645Z,93.50
2022-12-23T16:22:32.184Z,93.60
2022-12-23T16:25:15.570Z,93.60
2022-12-23T16:28:11.989Z,93.60
2022-12-23T16:30:54.496Z,93.50
2022-12-23T16:33:37.265Z,93.60
2022-12-23T16:36:33.662Z,93.80
2022-12-23T16:39:12.317Z,93.70
2022-12-23T16:41:42.797Z,93.60
2022-12-23T16:44:09.967Z,93.60
2022-12-23T16:46:40.098Z,93.40
2022-12-23T16:49:12.252Z,93.40
2022-12-23T16:51:56.146Z,93.40
2022-12-23T16:54:26.361Z,93.20
2022-12-23T16:56:53.844Z,93.30
2022-12-23T16:59:28.753Z,93.20
2022-12-23T17:02:03.131Z,93.30
2022-12-23T17:04:33.782Z,93.30
2022-12-23T17:07:05.988Z,93.20
2022-12-23T17:09:33.356Z,93.10
2022-12-23T17:12:02.672Z,93.00
2022-12-23T17:14:30.400Z,93.00
2022-12-23T17:16:58.525Z,93.10
2022-12-23T17:19:29.268Z,92.90
2022-12-23T17:22:01.329Z,93.20
2022-12-23T17:24:37.538Z,93.20
2022-12-23T17:27:25.384Z,93.20
2022-12-23T17:29:53.762Z,93.30
2022-12-23T17:32:24.422Z,93.30
2022-12-23T17:34:52.872Z,93.20
2022-12-23T17:37:23.001Z,93.10
2022-12-23T17:39:51.526Z,93.00
2022-12-23T17:42:25.766Z,93.10
2022-12-23T17:44:54.399Z,93.00
2022-12-23T17:47:22.704Z,92.90
2022-12-23T17:49:50.028Z,92.80
2022-12-23T17:52:20.688Z,93.00
2022-12-23T17:54:49.955Z,93.10
2022-12-23T17:57:31.152Z,93.10
2022-12-23T18:00:03.032Z,93.10
2022-12-23T18:02:36.748Z,92.90
2022-12-23T18:05:28.525Z,93.00
2022-12-23T18:08:06.810Z,93.10
2022-12-23T18:10:39.092Z,92.90
2022-12-23T18:13:24.003Z,92.90
2022-12-23T18:15:56.975Z,92.90
2022-12-23T18:18:37.969Z,93.00
2022-12-23T18:21:17.858Z,93.10
2022-12-23T18:23:54.416Z,93.10
2022-12-23T18:26:24.377Z,93.20
2022-12-23T18:28:55.370Z,93.30
2022-12-23T18:31:24.675Z,93.30
2022-12-23T18:33:58.666Z,93.20
2022-12-23T18:36:28.663Z,93.20
2022-12-23T18:38:57.601Z,93.30
2022-12-23T18:41:34.976Z,93.30
2022-12-23T18:44:16.870Z,93.20
2022-12-23T18:46:54.788Z,92.90
2022-12-23T18:49:26.849Z,93.00
2022-12-23T18:52:08.530Z,93.00
2022-12-23T18:54:39.818Z,92.80
2022-12-23T18:57:11.284Z,92.70
2022-12-23T18:59:39.836Z,92.60
2022-12-23T19:02:08.220Z,92.60
2022-12-23T19:04:38.862Z,92.50
2022-12-23T19:07:06.839Z,92.60
2022-12-23T19:09:37.655Z,92.50
2022-12-23T19:12:05.832Z,92.40
2022-12-23T19:14:33.606Z,92.30
2022-12-23T19:17:01.973Z,92.30
2022-12-23T19:19:35.385Z,92.30
2022-12-23T19:22:03.063Z,92.20
2022-12-23T19:24:51.948Z,92.30
2022-12-23T19:27:25.255Z,92.50
2022-12-23T19:29:55.182Z,92.30
2022-12-23T19:32:26.036Z,92.20
2022-12-23T19:34:55.399Z,92.20
2022-12-23T19:37:25.225Z,92.00
2022-12-23T19:39:52.421Z,91.90
2022-12-23T19:42:26.887Z,91.50
2022-12-23T19:44:55.506Z,91.20
2022-12-23T19:47:27.572Z,90.50
2022-12-23T19:49:55.413Z,90.30
2022-12-23T19:52:30.570Z,90.20
2022-12-23T19:54:59.878Z,90.10
2022-12-23T19:57:30.358Z,89.80
2022-12-23T20:00:02.946Z,89.60
2022-12-23T20:02:35.884Z,89.70
2022-12-23T20:05:03.230Z,89.90
2022-12-23T20:07:30.440Z,89.80
2022-12-23T20:09:57.595Z,89.80
2022-12-23T20:12:28.120Z,90.10
2022-12-23T20:14:55.606Z,90.00
2022-12-23T20:17:22.887Z,89.90
2022-12-23T20:19:50.866Z,89.90
2022-12-23T20:22:18.062Z,89.60
2022-12-23T20:24:45.575Z,89.40
2022-12-23T20:27:20.139Z,89.30
2022-12-23T20:29:49.919Z,89.20
2022-12-23T20:32:22.853Z,89.40
2022-12-23T20:34:52.677Z,89.40
2022-12-23T20:37:20.552Z,88.80
2022-12-23T20:39:47.849Z,88.30
2022-12-23T20:42:18.050Z,88.10
2022-12-23T20:44:46.332Z,88.20
2022-12-23T20:47:16.318Z,88.10
2022-12-23T20:49:46.469Z,88.00
2022-12-23T20:52:13.799Z,88.00
2022-12-23T20:54:44.151Z,87.40
2022-12-23T20:57:14.977Z,87.20
2022-12-23T20:59:45.015Z,87.40
2022-12-23T21:02:19.151Z,87.40
2022-12-23T21:04:55.310Z,87.30
2022-12-23T21:07:26.369Z,87.10
2022-12-23T21:09:53.415Z,87.00
2022-12-23T21:12:32.277Z,86.80
2022-12-23T21:15:02.732Z,86.60
2022-12-23T21:17:36.840Z,86.40
2022-12-23T21:20:07.947Z,86.10
2022-12-23T21:22:41.379Z,85.80
2022-12-23T21:25:11.107Z,85.80
2022-12-23T21:27:43.001Z,85.50
2022-12-23T21:30:20.052Z,85.10
2022-12-23T21:32:48.281Z,84.60
2022-12-23T21:35:18.642Z,84.30
2022-12-23T21:37:46.181Z,84.00
2022-12-23T21:40:17.285Z,84.10
2022-12-23T21:42:46.132Z,84.40
2022-12-23T21:45:13.748Z,84.70
2022-12-23T21:47:41.417Z,84.90
2022-12-23T21:50:12.951Z,85.10
2022-12-23T21:52:40.884Z,84.90
2022-12-23T21:55:10.719Z,84.80
2022-12-23T21:57:39.919Z,84.80
2022-12-23T22:00:07.998Z,84.60
2022-12-23T22:02:35.524Z,84.70
2022-12-23T22:05:06.320Z,85.00
2022-12-23T22:07:33.528Z,85.40
2022-12-23T22:10:00.593Z,85.80
2022-12-23T22:12:32.107Z,86.40
2022-12-23T22:14:59.757Z,86.40
2022-12-23T22:17:26.879Z,86.40
2022-12-23T22:19:57.619Z,86.90
2022-12-23T22:22:28.621Z,87.20
2022-12-23T22:24:56.141Z,87.50
2022-12-23T22:27:23.945Z,87.80
2022-12-23T22:29:59.795Z,88.10
2022-12-23T22:32:39.071Z,88.20
2022-12-23T22:35:09.822Z,88.40
2022-12-23T22:37:43.668Z,88.60
2022-12-23T22:40:13.990Z,88.70
2022-12-23T22:42:42.078Z,88.40
2022-12-23T22:45:15.673Z,88.40
2022-12-23T22:47:45.537Z,88.60
2022-12-23T22:50:15.374Z,89.10
2022-12-23T22:52:48.335Z,89.40
2022-12-23T22:55:15.532Z,89.50
2022-12-23T22:57:43.395Z,89.50
2022-12-23T23:00:12.952Z,89.40
2022-12-23T23:02:40.572Z,89.40
2022-12-23T23:05:13.234Z,89.60
2022-12-23T23:07:40.593Z,89.50
2022-12-23T23:10:08.976Z,89.40
2022-12-23T23:12:38.896Z,89.10
2022-12-23T23:15:13.316Z,88.90
2022-12-23T23:17:42.901Z,88.90
2022-12-23T23:20:15.024Z,88.90
2022-12-23T23:22:44.722Z,88.90
2022-12-23T23:25:15.936Z,88.80
2022-12-23T23:27:46.830Z,88.60
2022-12-23T23:30:19.903Z,87.80
2022-12-23T23:32:54.998Z,87.50
2022-12-23T23:35:22.711Z,87.60
2022-12-23T23:37:49.938Z,87.70
2022-12-23T23:40:22.428Z,87.90
2022-12-23T23:42:49.979Z,87.90
2022-12-23T23:45:17.150Z,87.60
2022-12-23T23:47:44.595Z,87.30
2022-12-23T23:50:12.314Z,87.40
2022-12-23T23:52:39.472Z,87.60
2022-12-23T23:55:07.473Z,87.60
2022-12-23T23:57:38.380Z,87.50
